Time;durP1;ratioP1;P1;durP2;ratioP2;P2;SDS_P1;SDS_P2;PMS_P1;PMS_P2;Temp;Humidity;BMP_temperature;BMP_pressure;BME280_temperature;BME280_humidity;BME280_pressure;Samples;Min_cycle;Max_cycle;Signal;HPM_P1;HPM_P2
2022/12/07 00:00:46;;;;;;;4.22;2.75;;;;;;;4.05;100.00;98105.91;2595457;28;20741;-88
2022/12/07 00:02:02;;;;;;;6.22;2.42;;;;;;;4.00;100.00;98109.38;2595451;28;20053;-87
2022/12/07 00:03:17;;;;;;;4.40;2.60;;;;;;;4.01;100.00;98104.16;2595523;28;20068;-88
2022/12/07 00:04:33;;;;;;;3.25;2.28;;;;;;;3.98;100.00;98111.09;2595586;28;20084;-88
2022/12/07 00:05:48;;;;;;;4.10;2.78;;;;;;;3.93;100.00;98108.56;2595474;28;20057;-88
2022/12/07 00:07:04;;;;;;;4.90;2.60;;;;;;;4.04;100.00;98103.31;2595657;28;20045;-88
2022/12/07 00:08:19;;;;;;;4.25;2.70;;;;;;;4.00;100.00;98107.63;2595593;28;20053;-86
2022/12/07 00:09:35;;;;;;;4.53;2.55;;;;;;;4.07;100.00;98108.44;2595633;28;20049;-88
2022/12/07 00:10:51;;;;;;;6.55;3.00;;;;;;;4.03;100.00;98102.44;2595466;28;20041;-88
2022/12/07 00:12:06;;;;;;;5.45;2.78;;;;;;;4.03;100.00;98102.44;2595682;28;20111;-88
2022/12/07 00:13:22;;;;;;;5.05;2.85;;;;;;;3.99;100.00;98111.09;2595504;28;20049;-88
2022/12/07 00:14:37;;;;;;;5.35;2.50;;;;;;;4.02;100.00;98103.31;2595643;28;20595;-87
2022/12/07 00:15:53;;;;;;;5.03;2.90;;;;;;;3.98;100.00;98111.97;2595390;28;20049;-87
2022/12/07 00:17:09;;;;;;;5.70;2.92;;;;;;;4.06;100.00;98102.44;2595605;28;20084;-88
2022/12/07 00:18:24;;;;;;;5.43;3.17;;;;;;;4.09;100.00;98105.00;2595519;28;20475;-88
2022/12/07 00:19:40;;;;;;;5.97;3.08;;;;;;;4.00;100.00;98106.78;2595126;28;20053;-89
2022/12/07 00:21:12;;;;;;;4.72;2.90;;;;;;;4.03;100.00;98107.59;2595315;28;20042;-87
2022/12/07 00:22:28;;;;;;;6.75;2.85;;;;;;;4.08;100.00;98097.22;2595236;28;20417;-87
2022/12/07 00:23:45;;;;;;;6.00;3.60;;;;;;;4.06;100.00;98092.06;2595423;28;20107;-87
2022/12/07 00:25:00;;;;;;;5.70;3.58;;;;;;;4.09;100.00;98097.22;2595052;28;20095;-88
2022/12/07 00:26:20;;;;;;;6.35;2.88;;;;;;;4.03;100.00;98091.22;2595479;28;20096;-87
2022/12/07 00:27:36;;;;;;;5.93;3.30;;;;;;;4.01;100.00;98093.81;2595072;28;20045;-89
2022/12/07 00:28:55;;;;;;;7.65;3.17;;;;;;;4.02;100.00;98089.50;2595265;28;20140;-88
2022/12/07 00:30:10;;;;;;;6.43;3.17;;;;;;;4.01;100.00;98093.81;2595187;28;20050;-87
2022/12/07 00:31:29;;;;;;;5.63;2.90;;;;;;;3.92;100.00;98089.56;2594078;28;20464;-88
2022/12/07 00:32:44;;;;;;;4.35;2.72;;;;;;;4.15;100.00;98090.25;2594631;28;20519;-88
2022/12/07 00:34:00;;;;;;;5.88;3.00;;;;;;;4.27;100.00;98092.75;2595355;28;20068;-88
2022/12/07 00:35:16;;;;;;;5.28;2.90;;;;;;;4.11;100.00;98097.19;2595259;28;20492;-87
2022/12/07 00:36:31;;;;;;;3.70;2.45;;;;;;;4.14;100.00;98093.72;2595232;28;20104;-87
2022/12/07 00:37:47;;;;;;;3.85;2.33;;;;;;;4.06;100.00;98092.06;2595354;28;20049;-86
2022/12/07 00:39:03;;;;;;;3.65;2.75;;;;;;;4.14;100.00;98085.94;2595275;28;20061;-88
2022/12/07 00:40:19;;;;;;;5.55;2.80;;;;;;;4.38;100.00;98088.34;2595116;28;20054;-87
2022/12/07 00:41:34;;;;;;;4.28;2.72;;;;;;;4.49;100.00;98087.41;2594985;28;20045;-87
2022/12/07 00:42:50;;;;;;;4.55;2.40;;;;;;;4.43;100.00;98087.44;2595003;28;20053;-87
2022/12/07 00:44:06;;;;;;;3.50;2.50;;;;;;;4.53;100.00;98086.50;2595161;28;20438;-88
2022/12/07 00:45:21;;;;;;;6.68;2.63;;;;;;;4.30;100.00;98090.13;2595065;28;20566;-88
2022/12/07 00:46:37;;;;;;;4.25;2.75;;;;;;;4.49;100.00;98085.66;2595166;28;20049;-88
2022/12/07 00:47:52;;;;;;;5.75;2.30;;;;;;;4.40;100.00;98090.06;2595290;28;20049;-86
2022/12/07 00:49:08;;;;;;;3.95;2.42;;;;;;;4.38;100.00;98084.88;2594934;28;20721;-87
2022/12/07 00:50:24;;;;;;;3.92;2.22;;;;;;;4.15;100.00;98088.53;2594911;28;20657;-88
2022/12/07 00:51:39;;;;;;;4.03;2.10;;;;;;;4.07;100.00;98092.91;2595541;28;20107;-88
2022/12/07 00:52:55;;;;;;;3.85;2.25;;;;;;;4.28;100.00;98086.69;2595023;28;20416;-88
2022/12/07 00:54:11;;;;;;;3.10;2.00;;;;;;;4.28;100.00;98086.69;2595258;28;21098;-91
2022/12/07 00:55:26;;;;;;;3.75;2.58;;;;;;;4.41;100.00;98091.78;2595346;28;20408;-87
2022/12/07 00:56:42;;;;;;;4.53;2.78;;;;;;;4.26;100.00;98083.25;2595353;28;20053;-87
2022/12/07 00:57:58;;;;;;;3.55;2.40;;;;;;;4.16;100.00;98091.97;2595422;28;20486;-87
2022/12/07 00:59:14;;;;;;;3.25;2.08;;;;;;;4.25;100.00;98086.72;2594353;28;20054;-86
2022/12/07 01:00:30;;;;;;;2.95;1.92;;;;;;;4.27;100.00;98084.97;2594592;28;20136;-87
2022/12/07 01:01:46;;;;;;;3.72;2.17;;;;;;;4.09;100.00;98086.84;2595074;28;20527;-88
2022/12/07 01:03:02;;;;;;;3.40;2.25;;;;;;;4.30;100.00;98082.34;2595131;28;20448;-86
2022/12/07 01:04:18;;;;;;;3.53;2.38;;;;;;;4.52;100.00;98082.19;2595337;28;20085;-87
2022/12/07 01:05:34;;;;;;;3.55;2.20;;;;;;;4.64;100.00;98074.28;2595043;28;20046;-87
2022/12/07 01:06:50;;;;;;;3.70;2.30;;;;;;;4.52;100.00;98080.44;2594479;28;20084;-87
2022/12/07 01:08:06;;;;;;;2.75;2.08;;;;;;;4.42;100.00;98084.00;2596430;28;20061;-87
2022/12/07 01:09:22;;;;;;;3.70;2.20;;;;;;;4.43;100.00;98088.31;2597047;28;20135;-86
2022/12/07 01:10:37;;;;;;;3.55;2.17;;;;;;;4.18;100.00;98083.31;2597086;28;20061;-87
2022/12/07 01:11:53;;;;;;;3.33;2.30;;;;;;;4.25;100.00;98086.72;2597100;28;20459;-87
2022/12/07 01:13:09;;;;;;;3.80;2.13;;;;;;;4.34;100.00;98088.38;2596944;28;20512;-90
2022/12/07 01:14:24;;;;;;;2.47;1.92;;;;;;;3.95;100.00;98088.69;2597185;28;20497;-87
2022/12/07 01:15:42;;;;;;;3.45;2.20;;;;;;;4.34;100.00;98089.25;2596747;28;20054;-87
2022/12/07 01:16:58;;;;;;;3.22;1.95;;;;;;;4.09;100.00;98092.03;2597030;28;20073;-87
2022/12/07 01:18:14;;;;;;;2.83;1.90;;;;;;;3.87;100.00;98095.63;2597046;28;20504;-87
2022/12/07 01:19:29;;;;;;;3.33;1.92;;;;;;;4.14;100.00;98092.00;2597018;28;20057;-87
2022/12/07 01:20:45;;;;;;;4.28;2.17;;;;;;;4.31;100.00;98085.81;2597223;28;20057;-87
2022/12/07 01:22:00;;;;;;;3.53;2.42;;;;;;;4.43;100.00;98082.25;2596994;28;20057;-88
2022/12/07 01:23:16;;;;;;;4.95;2.30;;;;;;;4.32;100.00;98087.53;2597146;28;20496;-88
2022/12/07 01:24:31;;;;;;;3.63;2.42;;;;;;;4.18;100.00;98083.31;2597136;28;20084;-86
2022/12/07 01:26:04;;;;;;;3.20;2.30;;;;;;;4.21;100.00;98085.03;2596968;28;20057;-87
2022/12/07 01:27:19;;;;;;;4.30;2.60;;;;;;;4.36;100.00;98086.63;2597068;28;20095;-86
2022/12/07 01:28:35;;;;;;;3.45;2.25;;;;;;;4.09;100.00;98080.81;2596894;28;20057;-88
2022/12/07 01:29:51;;;;;;;3.90;2.17;;;;;;;4.33;100.00;98078.88;2596907;28;20128;-87
2022/12/07 01:31:14;;;;;;;3.25;2.28;;;;;;;4.13;100.00;98079.06;2596559;28;20053;-89
2022/12/07 01:32:30;;;;;;;3.17;2.03;;;;;;;4.00;100.00;98083.47;2596901;28;20199;-87
2022/12/07 01:33:48;;;;;;;2.88;2.22;;;;;;;4.04;100.00;98088.59;2597025;28;20045;-87
2022/12/07 01:35:04;;;;;;;2.75;2.05;;;;;;;4.18;100.00;98085.03;2596969;28;20053;-87
2022/12/07 01:36:31;;;;;;;3.53;2.38;;;;;;;4.25;100.00;98081.56;2597053;28;20049;-87
2022/12/07 01:37:47;;;;;;;3.42;2.15;;;;;;;4.27;100.00;98074.63;2596927;28;20511;-87
2022/12/07 01:39:05;;;;;;;4.10;2.03;;;;;;;4.43;100.00;98084.84;2597050;28;20120;-87
2022/12/07 01:40:21;;;;;;;5.65;2.90;;;;;;;4.40;100.00;98082.28;2596585;28;20057;-87
2022/12/07 01:41:40;;;;;;;3.63;2.25;;;;;;;4.28;100.00;98081.50;2596935;28;20046;-87
2022/12/07 01:42:55;;;;;;;2.75;1.92;;;;;;;3.93;100.00;98080.06;2596879;28;20052;-87
2022/12/07 01:44:17;;;;;;;3.10;2.05;;;;;;;4.19;100.00;98077.28;2596902;28;20428;-88
2022/12/07 01:45:42;;;;;;;3.22;2.38;;;;;;;4.41;100.00;98076.22;2596839;28;20072;-87
2022/12/07 01:47:03;;;;;;;4.30;2.45;;;;;;;4.35;100.00;98079.72;2596906;28;20038;-87
2022/12/07 01:48:24;;;;;;;4.30;2.40;;;;;;;4.13;100.00;98077.34;2596750;28;20053;-87
2022/12/07 01:49:47;;;;;;;3.47;2.00;;;;;;;3.88;100.00;98077.50;2596796;28;20455;-87
2022/12/07 01:51:10;;;;;;;3.70;2.45;;;;;;;4.15;100.00;98078.19;2596782;28;20128;-86
2022/12/07 01:52:30;;;;;;;4.80;2.70;;;;;;;4.14;100.00;98073.00;2596966;28;20079;-88
2022/12/07 01:53:46;;;;;;;4.13;2.38;;;;;;;3.95;100.00;98081.75;2596798;28;20061;-87
2022/12/07 01:55:05;;;;;;;4.65;2.60;;;;;;;4.18;100.00;98079.88;2596965;28;20134;-87
2022/12/07 01:56:26;;;;;;;3.58;2.45;;;;;;;4.08;100.00;98077.38;2596857;28;20747;-87
2022/12/07 01:57:47;;;;;;;3.50;2.35;;;;;;;3.90;100.00;98072.31;2596625;28;20132;-87
2022/12/07 01:59:03;;;;;;;3.85;2.67;;;;;;;3.99;100.00;98072.25;2596722;28;20351;-87
2022/12/07 02:00:19;;;;;;;3.83;2.38;;;;;;;3.77;100.00;98074.13;2595845;28;20444;-88
2022/12/07 02:01:35;;;;;;;4.25;2.63;;;;;;;3.70;100.00;98077.63;2595890;28;20486;-88
2022/12/07 02:02:53;;;;;;;4.07;2.53;;;;;;;3.86;100.00;98068.91;2596574;28;20480;-87
2022/12/07 02:04:10;;;;;;;3.80;2.58;;;;;;;3.99;100.00;98068.81;2596313;28;20077;-87
2022/12/07 02:05:27;;;;;;;4.18;2.45;;;;;;;4.11;100.00;98063.50;2596537;28;20408;-87
2022/12/07 02:06:44;;;;;;;4.03;2.58;;;;;;;4.13;100.00;98068.69;2596423;28;20484;-89
2022/12/07 02:08:01;;;;;;;4.95;2.70;;;;;;;3.92;100.00;98065.41;2596336;28;20057;-87
2022/12/07 02:09:17;;;;;;;4.43;3.13;;;;;;;3.70;100.00;98073.31;2596438;28;20131;-87
2022/12/07 02:10:32;;;;;;;4.30;2.63;;;;;;;4.01;100.00;98060.13;2596552;28;20491;-87
2022/12/07 02:11:49;;;;;;;13.38;3.20;;;;;;;4.10;100.00;98066.97;2596136;28;20220;-87
2022/12/07 02:13:18;;;;;;;2.88;2.15;;;;;;;3.99;100.00;98063.63;2596340;28;20389;-87
2022/12/07 02:14:34;;;;;;;4.35;2.47;;;;;;;4.16;100.00;98058.28;2596570;28;20439;-86
2022/12/07 02:15:52;;;;;;;4.25;2.50;;;;;;;4.32;100.00;98065.06;2596182;28;20099;-88
2022/12/07 02:17:24;;;;;;;3.55;2.30;;;;;;;4.18;100.00;98064.31;2596443;28;20654;-87
2022/12/07 02:19:19;;;;;;;3.23;2.40;;;;;;;4.32;100.00;98062.47;2596251;28;20091;-87
2022/12/07 02:20:44;;;;;;;2.63;2.20;;;;;;;4.31;100.00;98065.09;2588782;28;20471;-86
2022/12/07 02:22:34;;;;;;;4.55;2.47;;;;;;;3.77;100.00;98063.78;2596245;28;20057;-89
2022/12/07 02:24:18;;;;;;;3.75;2.25;;;;;;;3.94;100.00;98063.66;2596170;28;20647;-87
2022/12/07 02:25:45;;;;;;;3.65;2.15;;;;;;;3.63;100.00;98063.84;2588661;28;20090;-87
2022/12/07 02:27:34;;;;;;;3.88;2.40;;;;;;;3.99;100.00;98059.28;2596235;28;20147;-86
2022/12/07 02:29:10;;;;;;;4.07;2.50;;;;;;;3.62;100.00;98063.00;2596296;28;20474;-86
2022/12/07 02:30:31;;;;;;;2.83;1.95;;;;;;;3.84;100.00;98062.00;2595914;28;20050;-87
2022/12/07 02:31:53;;;;;;;3.55;2.42;;;;;;;3.93;100.00;98059.34;2596193;28;20081;-88
2022/12/07 02:33:16;;;;;;;3.92;2.22;;;;;;;3.86;100.00;98060.25;2596053;28;20409;-87
2022/12/07 02:34:47;;;;;;;5.28;2.30;;;;;;;3.88;100.00;98061.97;2596085;28;20400;-87
2022/12/07 02:36:16;;;;;;;3.05;2.30;;;;;;;3.92;100.00;98057.63;2596315;28;20469;-86
2022/12/07 02:38:11;;;;;;;5.50;2.58;;;;;;;3.58;100.00;98068.19;2596324;28;20484;-87
2022/12/07 02:39:37;;;;;;;3.45;2.28;;;;;;;3.76;100.00;98062.91;2596223;28;20060;-87
2022/12/07 02:40:59;;;;;;;3.25;2.10;;;;;;;3.76;100.00;98068.06;2596385;28;20859;-86
2022/12/07 02:42:25;;;;;;;5.90;2.53;;;;;;;3.50;100.00;98065.66;2595469;28;20053;-87
2022/12/07 02:43:46;;;;;;;4.38;2.50;;;;;;;3.76;100.00;98052.53;2595192;28;20053;-87
2022/12/07 02:45:03;;;;;;;3.72;2.63;;;;;;;3.56;100.00;98051.81;2596426;28;20496;-87
2022/12/07 02:46:33;;;;;;;4.20;2.72;;;;;;;3.62;100.00;98062.13;2595944;28;20048;-89
2022/12/07 02:47:52;;;;;;;2.45;1.48;;;;;;;3.50;100.00;98058.78;2596189;28;20141;-87
2022/12/07 02:49:10;;;;;;;5.05;2.63;;;;;;;3.49;100.00;98066.53;2596028;28;20159;-86
2022/12/07 02:50:27;;;;;;;3.10;1.80;;;;;;;3.50;100.00;98060.47;2595813;28;20071;-89
2022/12/07 02:51:45;;;;;;;3.60;2.00;;;;;;;3.40;100.00;98064.84;2595937;28;20393;-86
2022/12/07 02:53:01;;;;;;;4.93;3.20;;;;;;;3.65;100.00;98065.56;2595313;28;20135;-87
2022/12/07 02:54:19;;;;;;;4.80;2.55;;;;;;;3.66;100.00;98063.84;2595774;28;20053;-87
2022/12/07 02:55:41;;;;;;;3.83;2.60;;;;;;;3.60;100.00;98053.50;2595958;28;20507;-86
2022/12/07 02:57:06;;;;;;;3.60;2.53;;;;;;;3.62;100.00;98049.19;2596300;28;20499;-86
2022/12/07 02:58:40;;;;;;;4.65;2.50;;;;;;;3.39;100.00;98056.22;2596031;28;20057;-86
2022/12/07 03:00:12;;;;;;;5.55;3.00;;;;;;;3.42;100.00;98052.75;2595624;28;20096;-86
2022/12/07 03:01:42;;;;;;;6.05;2.47;;;;;;;3.61;100.00;98052.66;2596099;28;20135;-86
2022/12/07 03:03:07;;;;;;;6.03;3.00;;;;;;;3.74;100.00;98050.84;2595161;28;20124;-85
2022/12/07 03:04:45;;;;;;;4.82;2.85;;;;;;;3.86;100.00;98053.34;2595734;28;20053;-87
2022/12/07 03:06:19;;;;;;;5.07;2.83;;;;;;;3.46;100.00;98053.59;2595907;28;20172;-86
2022/12/07 03:08:01;;;;;;;5.68;3.30;;;;;;;3.53;100.00;98050.97;2595839;28;20160;-86
2022/12/07 03:09:41;;;;;;;5.22;3.17;;;;;;;3.42;100.00;98051.88;2590579;28;20127;-88
2022/12/07 03:11:06;;;;;;;4.68;2.92;;;;;;;3.61;100.00;98043.16;2595939;28;20570;-86
2022/12/07 03:12:31;;;;;;;5.15;3.13;;;;;;;3.47;100.00;98044.97;2595823;28;20131;-86
2022/12/07 03:13:59;;;;;;;6.28;3.75;;;;;;;3.51;100.00;98042.38;2595982;28;20568;-88
2022/12/07 03:15:23;;;;;;;4.57;2.92;;;;;;;3.75;100.00;98032.69;2595745;28;20512;-87
2022/12/07 03:17:03;;;;;;;8.07;3.45;;;;;;;3.88;100.00;98022.25;2595907;28;20144;-87
2022/12/07 03:18:21;;;;;;;4.82;3.00;;;;;;;3.79;100.00;98029.22;2595907;28;20180;-87
2022/12/07 03:19:38;;;;;;;6.05;3.08;;;;;;;3.70;100.00;98036.19;2595831;28;20371;-87
2022/12/07 03:20:58;;;;;;;4.70;3.00;;;;;;;3.41;100.00;98037.22;2596041;28;20499;-87
2022/12/07 03:22:15;;;;;;;4.97;2.85;;;;;;;3.36;100.00;98042.47;2596062;28;20445;-87
2022/12/07 03:23:34;;;;;;;6.22;3.00;;;;;;;3.20;100.00;98042.50;2595656;28;20076;-87
2022/12/07 03:24:54;;;;;;;5.03;3.10;;;;;;;3.37;100.00;98044.16;2596051;28;20041;-87
2022/12/07 03:26:14;;;;;;;5.32;3.28;;;;;;;3.44;100.00;98039.81;2595760;28;20428;-87
2022/12/07 03:28:01;;;;;;;5.63;3.50;;;;;;;3.33;100.00;98030.38;2596119;28;20081;-87
2022/12/07 03:29:25;;;;;;;4.78;2.95;;;;;;;3.39;100.00;98037.25;2595369;28;20068;-87
2022/12/07 03:31:11;;;;;;;6.45;3.67;;;;;;;3.48;100.00;98042.34;2595375;28;20122;-87
2022/12/07 03:32:42;;;;;;;6.35;3.20;;;;;;;3.41;100.00;98038.09;2595152;28;20484;-87
2022/12/07 03:34:23;;;;;;;5.47;3.25;;;;;;;3.37;100.00;98033.81;2595857;28;20087;-88
2022/12/07 03:35:56;;;;;;;4.55;2.75;;;;;;;3.49;100.00;98032.88;2595295;28;20097;-88
2022/12/07 03:37:45;;;;;;;6.07;3.25;;;;;;;3.25;100.00;98029.56;2595554;28;20046;-86
2022/12/07 03:39:24;;;;;;;4.35;2.47;;;;;;;3.29;100.00;98033.00;2595692;28;20543;-88
2022/12/07 03:41:04;;;;;;;4.72;3.10;;;;;;;3.46;100.00;98023.41;2595744;28;20081;-87
2022/12/07 03:42:20;;;;;;;5.35;2.80;;;;;;;3.49;100.00;98018.22;2595685;28;20045;-87
2022/12/07 03:43:37;;;;;;;6.53;3.45;;;;;;;3.51;100.00;98016.47;2595719;28;20886;-90
2022/12/07 03:44:53;;;;;;;5.35;3.42;;;;;;;3.52;100.00;98020.78;2595993;28;20053;-87
2022/12/07 03:46:20;;;;;;;3.63;2.60;;;;;;;3.35;100.00;98025.19;2595620;28;20054;-87
2022/12/07 03:47:59;;;;;;;5.60;3.22;;;;;;;3.47;100.00;98022.53;2595868;28;20060;-88
2022/12/07 03:49:20;;;;;;;5.07;3.00;;;;;;;3.42;100.00;98026.88;2589802;28;20058;-87
2022/12/07 03:50:47;;;;;;;5.45;3.55;;;;;;;3.48;100.00;98026.81;2595744;28;20068;-87
2022/12/07 03:52:23;;;;;;;5.10;2.90;;;;;;;3.52;100.00;98027.69;2595510;28;20352;-87
2022/12/07 03:53:46;;;;;;;5.15;3.28;;;;;;;3.47;100.00;98027.69;2595109;28;20049;-86
2022/12/07 03:55:20;;;;;;;7.22;3.15;;;;;;;3.25;100.00;98025.25;2595687;28;20456;-87
2022/12/07 03:56:36;;;;;;;4.95;3.17;;;;;;;3.41;100.00;98019.13;2595474;28;20049;-87
2022/12/07 03:57:58;;;;;;;5.28;3.40;;;;;;;3.43;100.00;98022.56;2595624;28;20530;-87
2022/12/07 03:59:15;;;;;;;5.53;3.08;;;;;;;3.53;100.00;98016.44;2595621;28;20122;-86
2022/12/07 04:00:31;;;;;;;4.47;2.85;;;;;;;3.35;100.00;98018.28;2595769;28;20076;-87
2022/12/07 04:01:54;;;;;;;5.85;3.30;;;;;;;3.65;100.00;98008.59;2595172;28;20119;-87
2022/12/07 04:03:11;;;;;;;6.25;3.20;;;;;;;3.66;100.00;98009.47;2595909;28;20107;-86
2022/12/07 04:04:27;;;;;;;6.03;3.60;;;;;;;3.72;100.00;98008.59;2595732;28;20140;-87
2022/12/07 04:05:43;;;;;;;6.43;3.90;;;;;;;3.54;100.00;98010.41;2595761;28;21044;-87
2022/12/07 04:06:59;;;;;;;4.70;3.08;;;;;;;3.69;100.00;98012.03;2595791;28;20053;-87
2022/12/07 04:08:15;;;;;;;4.75;3.10;;;;;;;3.84;100.00;98012.78;2595909;28;20077;-87
2022/12/07 04:09:30;;;;;;;6.20;3.60;;;;;;;3.66;100.00;98012.06;2595555;28;20068;-87
2022/12/07 04:10:46;;;;;;;6.85;3.67;;;;;;;3.56;100.00;98018.16;2595510;28;20088;-86
2022/12/07 04:12:01;;;;;;;7.65;3.60;;;;;;;3.40;100.00;98013.09;2595496;28;20103;-87
2022/12/07 04:13:17;;;;;;;7.72;3.97;;;;;;;3.37;100.00;98018.28;2595205;28;20381;-89
2022/12/07 04:14:33;;;;;;;5.53;3.55;;;;;;;3.41;100.00;98014.81;2595586;28;20046;-89
2022/12/07 04:15:48;;;;;;;4.07;3.00;;;;;;;3.41;100.00;98012.22;2595227;28;20120;-87
2022/12/07 04:17:04;;;;;;;7.10;3.72;;;;;;;3.45;100.00;98005.31;2595704;28;20099;-87
2022/12/07 04:18:20;;;;;;;7.18;3.80;;;;;;;3.43;100.00;98005.31;2595614;28;20500;-87
2022/12/07 04:19:35;;;;;;;9.18;4.07;;;;;;;3.33;100.00;98003.63;2595575;28;20395;-87
2022/12/07 04:20:51;;;;;;;4.93;3.13;;;;;;;3.11;100.00;98007.19;2595659;28;20579;-87
2022/12/07 04:22:07;;;;;;;6.97;3.80;;;;;;;3.04;100.00;98000.34;2595586;28;20049;-87
2022/12/07 04:23:22;;;;;;;6.15;3.63;;;;;;;3.04;100.00;98004.66;2595302;28;20061;-87
2022/12/07 04:24:38;;;;;;;5.95;3.47;;;;;;;3.17;100.00;97998.56;2594796;28;20523;-87
2022/12/07 04:25:54;;;;;;;6.95;4.05;;;;;;;2.94;100.00;98007.31;2594997;28;20077;-88
2022/12/07 04:27:09;;;;;;;6.03;3.60;;;;;;;2.85;100.00;97998.69;2595260;28;20046;-88
2022/12/07 04:28:25;;;;;;;6.63;4.13;;;;;;;2.73;100.00;98003.06;2595270;28;20054;-87
2022/12/07 04:29:41;;;;;;;7.10;3.88;;;;;;;2.86;100.00;98003.00;2595431;28;20488;-87
2022/12/07 04:30:56;;;;;;;7.00;3.92;;;;;;;2.74;100.00;98004.78;2595276;28;20053;-87
2022/12/07 04:32:12;;;;;;;7.85;3.95;;;;;;;2.92;100.00;98003.00;2595300;28;20496;-90
2022/12/07 04:33:27;;;;;;;7.38;4.10;;;;;;;2.87;100.00;98003.00;2595456;28;20504;-86
2022/12/07 04:34:43;;;;;;;4.97;2.85;;;;;;;2.61;100.00;98003.94;2595485;28;20484;-87
2022/12/07 04:35:58;;;;;;;8.57;4.28;;;;;;;2.48;100.00;98002.28;2595270;28;20485;-86
2022/12/07 04:37:14;;;;;;;9.93;4.43;;;;;;;2.64;100.00;98001.34;2594317;28;20828;-85
2022/12/07 04:38:30;;;;;;;8.80;4.47;;;;;;;2.88;100.00;98006.47;2594601;28;20057;-86
2022/12/07 04:39:45;;;;;;;7.18;4.00;;;;;;;2.64;100.00;98005.69;2594785;28;20057;-85
2022/12/07 04:41:08;;;;;;;6.57;4.05;;;;;;;2.62;100.00;98003.09;2595193;28;20122;-85
2022/12/07 04:42:23;;;;;;;;;;;;;;;2.71;100.00;98003.94;2598022;28;20122;-86
2022/12/07 04:43:39;;;;;;;7.07;3.63;;;;;;;2.80;100.00;98001.31;2597297;28;19929;-86
2022/12/07 04:44:54;;;;;;;7.60;4.07;;;;;;;2.82;100.00;98007.34;2597211;28;20384;-85
2022/12/07 04:46:10;;;;;;;7.30;4.00;;;;;;;2.96;100.00;98007.28;2597411;28;20053;-86
2022/12/07 04:47:26;;;;;;;8.13;3.85;;;;;;;2.75;100.00;98010.81;2597146;28;20053;-86
2022/12/07 04:48:41;;;;;;;9.73;4.45;;;;;;;2.78;100.00;98003.03;2597233;28;20068;-86
2022/12/07 04:49:57;;;;;;;8.55;4.35;;;;;;;3.00;100.00;98003.81;2597353;28;20045;-86
2022/12/07 04:51:14;;;;;;;9.32;4.88;;;;;;;2.62;100.00;98002.25;2597085;28;20049;-85
2022/12/07 04:52:30;;;;;;;7.47;4.28;;;;;;;2.87;100.00;98008.19;2597178;28;20168;-86
2022/12/07 04:53:45;;;;;;;7.68;4.38;;;;;;;2.79;100.00;97999.56;2596900;28;20140;-85
2022/12/07 04:55:01;;;;;;;8.50;4.03;;;;;;;2.76;100.00;97999.59;2597148;28;20049;-86
2022/12/07 04:56:17;;;;;;;6.80;3.72;;;;;;;2.76;100.00;97997.00;2597294;28;20496;-87
2022/12/07 04:57:33;;;;;;;6.85;4.18;;;;;;;2.56;100.00;98000.53;2597048;28;20409;-85
2022/12/07 04:58:51;;;;;;;6.50;3.47;;;;;;;2.38;100.00;98001.44;2597152;28;20092;-85
2022/12/07 05:00:07;;;;;;;6.93;4.28;;;;;;;2.45;100.00;98004.88;2596401;28;20089;-85
2022/12/07 05:01:23;;;;;;;7.97;4.30;;;;;;;2.42;100.00;98002.28;2596383;28;20481;-85
2022/12/07 05:02:38;;;;;;;7.78;4.18;;;;;;;2.50;100.00;98005.69;2597166;28;20068;-86
2022/12/07 05:03:54;;;;;;;7.65;4.07;;;;;;;2.38;100.00;98006.59;2596910;28;20054;-85
2022/12/07 05:05:10;;;;;;;8.52;4.07;;;;;;;2.58;100.00;98006.56;2596804;28;20053;-85
2022/12/07 05:06:26;;;;;;;7.20;4.10;;;;;;;2.62;100.00;98007.41;2597359;28;20060;-85
2022/12/07 05:07:42;;;;;;;7.85;4.50;;;;;;;2.67;100.00;98014.28;2597235;28;20801;-86
2022/12/07 05:08:57;;;;;;;8.32;4.38;;;;;;;2.58;100.00;98016.03;2597351;28;20050;-85
2022/12/07 05:10:13;;;;;;;5.20;3.83;;;;;;;2.44;100.00;98009.16;2596962;28;20057;-85
2022/12/07 05:11:38;;;;;;;9.18;4.57;;;;;;;2.44;100.00;98013.47;2597119;28;20049;-85
2022/12/07 05:12:53;;;;;;;6.07;3.53;;;;;;;2.35;100.00;98011.78;2597120;28;20053;-84
2022/12/07 05:14:20;;;;;;;7.53;4.30;;;;;;;2.29;100.00;98015.22;2596717;28;20049;-85
2022/12/07 05:15:35;;;;;;;9.02;4.57;;;;;;;2.30;100.00;98005.75;2596958;28;20105;-84
2022/12/07 05:16:53;;;;;;;6.43;3.60;;;;;;;2.35;100.00;98015.22;2596903;28;20492;-85
2022/12/07 05:18:09;;;;;;;8.98;4.60;;;;;;;2.28;100.00;98005.78;2596923;28;20128;-86
2022/12/07 05:19:26;;;;;;;8.77;4.13;;;;;;;2.23;100.00;98005.78;2597049;28;20123;-85
2022/12/07 05:20:42;;;;;;;6.90;4.30;;;;;;;2.43;100.00;98011.75;2596772;28;20410;-86
2022/12/07 05:21:58;;;;;;;5.95;3.78;;;;;;;2.50;100.00;98014.34;2596588;28;20041;-88
2022/12/07 05:23:13;;;;;;;7.60;3.97;;;;;;;2.29;100.00;98010.06;2596359;28;20412;-85
2022/12/07 05:24:29;;;;;;;7.07;4.28;;;;;;;2.05;100.00;98011.81;2596976;28;20046;-84
2022/12/07 05:25:46;;;;;;;7.22;3.55;;;;;;;2.24;100.00;98012.66;2596941;28;20049;-85
2022/12/07 05:27:01;;;;;;;7.20;3.85;;;;;;;2.15;100.00;98007.50;2596825;28;20088;-85
2022/12/07 05:28:17;;;;;;;7.85;4.15;;;;;;;2.45;100.00;98004.88;2596681;28;20496;-84
2022/12/07 05:29:33;;;;;;;4.07;2.65;;;;;;;2.17;100.00;98010.97;2596606;28;20645;-89
2022/12/07 05:30:48;;;;;;;6.95;3.95;;;;;;;2.44;100.00;98014.31;2596551;28;20730;-85
2022/12/07 05:32:04;;;;;;;6.75;3.90;;;;;;;2.38;100.00;98007.47;2595983;28;20049;-86
2022/12/07 05:33:19;;;;;;;6.82;2.95;;;;;;;1.86;100.00;98005.78;2594899;28;20049;-86
2022/12/07 05:34:35;;;;;;;8.27;4.15;;;;;;;2.37;100.00;98003.16;2596545;28;20045;-85
2022/12/07 05:35:51;;;;;;;5.75;3.60;;;;;;;2.44;100.00;98008.31;2596577;28;20899;-85
2022/12/07 05:37:06;;;;;;;6.75;3.88;;;;;;;2.21;100.00;98004.03;2596786;28;20148;-84
2022/12/07 05:38:22;;;;;;;7.35;4.10;;;;;;;2.19;100.00;98008.34;2596603;28;20037;-86
2022/12/07 05:39:40;;;;;;;7.25;3.92;;;;;;;2.24;100.00;98002.31;2596712;28;20057;-83
2022/12/07 05:41:01;;;;;;;7.60;4.22;;;;;;;1.83;100.00;98001.50;2596866;28;20478;-84
2022/12/07 05:42:17;;;;;;;7.70;4.00;;;;;;;2.03;100.00;98008.38;2595739;28;20057;-84
2022/12/07 05:43:33;;;;;;;6.95;3.40;;;;;;;1.96;100.00;98004.09;2596042;28;20076;-85
2022/12/07 05:44:48;;;;;;;7.22;3.92;;;;;;;2.19;100.00;98000.59;2596746;28;20088;-85
2022/12/07 05:46:04;;;;;;;6.28;3.30;;;;;;;2.07;100.00;97997.16;2596751;28;20057;-84
2022/12/07 05:47:20;;;;;;;5.30;3.33;;;;;;;1.94;100.00;98006.66;2596779;28;20057;-86
2022/12/07 05:48:36;;;;;;;6.00;2.70;;;;;;;1.86;100.00;97997.19;2596790;28;20056;-85
2022/12/07 05:49:52;;;;;;;6.80;3.70;;;;;;;1.90;100.00;97997.19;2596478;28;20128;-85
2022/12/07 05:51:07;;;;;;;6.57;3.65;;;;;;;2.02;100.00;98004.06;2596945;28;20618;-84
2022/12/07 05:52:23;;;;;;;6.80;3.90;;;;;;;1.85;100.00;98009.22;2596232;28;20081;-84
2022/12/07 05:53:38;;;;;;;6.63;3.35;;;;;;;1.68;100.00;98001.50;2596248;28;20397;-84
2022/12/07 05:54:54;;;;;;;7.53;3.50;;;;;;;1.79;100.00;98006.66;2595902;28;20056;-85
2022/12/07 05:56:10;;;;;;;5.68;3.60;;;;;;;2.00;100.00;98007.50;2595775;28;20045;-86
2022/12/07 05:57:25;;;;;;;7.28;3.28;;;;;;;1.94;100.00;98006.66;2596101;28;20360;-85
2022/12/07 06:00:15;;;;;;;6.15;3.15;;;;;;;1.81;100.00;98003.19;2595715;28;20050;-85
2022/12/07 06:01:31;;;;;;;5.47;3.63;;;;;;;1.75;100.00;98000.63;2595964;28;20049;-85
2022/12/07 06:02:46;;;;;;;6.25;3.60;;;;;;;1.41;100.00;98003.19;2595793;28;20053;-84
2022/12/07 06:04:02;;;;;;;7.00;3.15;;;;;;;1.51;100.00;97994.59;2596057;28;20058;-85
2022/12/07 06:05:18;;;;;;;7.38;3.63;;;;;;;1.92;100.00;97995.47;2599856;28;20052;-83
2022/12/07 06:06:33;;;;;;;8.05;4.00;;;;;;;2.04;100.00;97996.34;2598766;28;20049;-86
2022/12/07 06:07:49;;;;;;;6.22;3.38;;;;;;;2.05;100.00;97991.16;2596218;28;20881;-89
2022/12/07 06:09:05;;;;;;;5.35;3.22;;;;;;;2.02;100.00;97990.28;2596515;28;20049;-84
2022/12/07 06:10:21;;;;;;;5.68;2.90;;;;;;;1.71;100.00;97991.19;2596022;28;20668;-87
2022/12/07 06:13:10;;;;;;;6.10;3.40;;;;;;;1.87;100.00;97986.84;2596407;28;20168;-86
2022/12/07 06:14:26;;;;;;;6.40;3.65;;;;;;;1.74;100.00;97985.13;2596226;28;21078;-86
2022/12/07 06:15:42;;;;;;;7.05;3.45;;;;;;;1.63;100.00;97993.75;2596431;28;20049;-87
2022/12/07 06:16:58;;;;;;;4.80;2.85;;;;;;;1.57;100.00;97998.06;2596383;28;20064;-84
2022/12/07 06:18:14;;;;;;;5.22;2.72;;;;;;;1.71;100.00;97990.31;2596345;28;20049;-83